sensor_id;sensor_type;location;lat;lon;timestamp;pressure;altitude;pressure_sealevel;temperature;humidity
6224;BME280;3145;42.726;23.342;2023-08-12T00:00:39;72214.41;;;-142.70;63.39
6224;BME280;3145;42.726;23.342;2023-08-12T00:03:06;72210.38;;;-142.70;63.48
6224;BME280;3145;42.726;23.342;2023-08-12T00:05:33;72214.41;;;-142.70;63.50
6224;BME280;3145;42.726;23.342;2023-08-12T00:08:01;72214.41;;;-142.70;63.73
6224;BME280;3145;42.726;23.342;2023-08-12T00:10:27;72224.50;;;-142.70;63.91
6224;BME280;3145;42.726;23.342;2023-08-12T00:12:54;72232.53;;;-142.70;63.92
6224;BME280;3145;42.726;23.342;2023-08-12T00:15:21;72238.59;;;-142.70;63.93
6224;BME280;3145;42.726;23.342;2023-08-12T00:17:49;72244.63;;;-142.70;64.05
6224;BME280;3145;42.726;23.342;2023-08-12T00:20:16;72240.59;;;-142.70;64.13
6224;BME280;3145;42.726;23.342;2023-08-12T00:22:43;72246.66;;;-142.70;64.03
6224;BME280;3145;42.726;23.342;2023-08-12T00:25:09;72242.63;;;-142.70;63.83
6224;BME280;3145;42.726;23.342;2023-08-12T00:27:36;72258.72;;;-142.70;64.10
6224;BME280;3145;42.726;23.342;2023-08-12T00:30:05;72258.72;;;-142.70;64.10
6224;BME280;3145;42.726;23.342;2023-08-12T00:32:31;72250.69;;;-142.70;64.03
6224;BME280;3145;42.726;23.342;2023-08-12T00:34:59;72258.72;;;-142.70;64.32
6224;BME280;3145;42.726;23.342;2023-08-12T00:37:26;72260.75;;;-142.70;64.47
6224;BME280;3145;42.726;23.342;2023-08-12T00:39:53;72274.84;;;-142.70;64.61
6224;BME280;3145;42.726;23.342;2023-08-12T00:42:19;72278.88;;;-142.70;64.84
6224;BME280;3145;42.726;23.342;2023-08-12T00:44:46;72278.88;;;-142.70;64.86
6224;BME280;3145;42.726;23.342;2023-08-12T00:47:13;72274.84;;;-142.70;64.82
6224;BME280;3145;42.726;23.342;2023-08-12T00:49:41;72284.91;;;-142.70;65.15
6224;BME280;3145;42.726;23.342;2023-08-12T00:52:11;72286.94;;;-142.70;65.22
6224;BME280;3145;42.726;23.342;2023-08-12T00:54:38;72290.97;;;-142.70;65.45
6224;BME280;3145;42.726;23.342;2023-08-12T00:57:06;72295.00;;;-142.70;65.71
6224;BME280;3145;42.726;23.342;2023-08-12T00:59:35;72301.03;;;-142.70;65.82
6224;BME280;3145;42.726;23.342;2023-08-12T01:02:02;72299.03;;;-142.70;65.93
6224;BME280;3145;42.726;23.342;2023-08-12T01:04:29;72303.06;;;-142.70;66.11
6224;BME280;3145;42.726;23.342;2023-08-12T01:06:56;72305.06;;;-142.70;66.29
6224;BME280;3145;42.726;23.342;2023-08-12T01:09:24;72313.13;;;-142.70;66.49
6224;BME280;3145;42.726;23.342;2023-08-12T01:12:03;72319.16;;;-142.70;66.73
6224;BME280;3145;42.726;23.342;2023-08-12T01:14:35;72333.25;;;-142.70;67.13
6224;BME280;3145;42.726;23.342;2023-08-12T01:17:07;72335.28;;;-142.70;67.56
6224;BME280;3145;42.726;23.342;2023-08-12T01:19:36;72341.31;;;-142.70;68.13
6224;BME280;3145;42.726;23.342;2023-08-12T01:22:06;72329.22;;;-142.70;68.83
6224;BME280;3145;42.726;23.342;2023-08-12T01:24:36;72327.22;;;-142.70;69.03
6224;BME280;3145;42.726;23.342;2023-08-12T01:27:02;72323.19;;;-142.70;69.01
6224;BME280;3145;42.726;23.342;2023-08-12T01:29:30;72323.19;;;-142.70;69.10
6224;BME280;3145;42.726;23.342;2023-08-12T01:32:01;72323.19;;;-142.70;68.95
6224;BME280;3145;42.726;23.342;2023-08-12T01:34:38;72327.22;;;-142.70;68.67
6224;BME280;3145;42.726;23.342;2023-08-12T01:37:06;72323.19;;;-142.70;68.64
6224;BME280;3145;42.726;23.342;2023-08-12T01:39:36;72327.22;;;-142.70;68.40
6224;BME280;3145;42.726;23.342;2023-08-12T01:42:05;72325.22;;;-142.70;68.49
6224;BME280;3145;42.726;23.342;2023-08-12T01:44:32;72319.16;;;-142.70;68.41
6224;BME280;3145;42.726;23.342;2023-08-12T01:46:59;72323.19;;;-142.70;68.10
6224;BME280;3145;42.726;23.342;2023-08-12T01:49:26;72323.19;;;-142.70;68.11
6224;BME280;3145;42.726;23.342;2023-08-12T01:51:53;72315.13;;;-142.70;67.73
6224;BME280;3145;42.726;23.342;2023-08-12T01:54:19;72317.16;;;-142.70;67.54
6224;BME280;3145;42.726;23.342;2023-08-12T01:56:47;72309.09;;;-142.70;67.39
6224;BME280;3145;42.726;23.342;2023-08-12T01:59:13;72313.13;;;-142.70;67.08
6224;BME280;3145;42.726;23.342;2023-08-12T02:01:40;72309.09;;;-142.70;66.79
6224;BME280;3145;42.726;23.342;2023-08-12T02:04:06;72307.06;;;-142.70;66.56
6224;BME280;3145;42.726;23.342;2023-08-12T02:06:33;72311.09;;;-142.70;66.60
6224;BME280;3145;42.726;23.342;2023-08-12T02:09:00;72319.16;;;-142.70;66.54
6224;BME280;3145;42.726;23.342;2023-08-12T02:11:27;72319.16;;;-142.70;66.55
6224;BME280;3145;42.726;23.342;2023-08-12T02:13:55;72323.19;;;-142.70;66.42
6224;BME280;3145;42.726;23.342;2023-08-12T02:16:21;72311.09;;;-142.70;66.23
6224;BME280;3145;42.726;23.342;2023-08-12T02:18:48;72311.09;;;-142.70;66.16
6224;BME280;3145;42.726;23.342;2023-08-12T02:21:15;72307.06;;;-142.70;65.98
6224;BME280;3145;42.726;23.342;2023-08-12T02:23:41;72311.09;;;-142.70;65.73
6224;BME280;3145;42.726;23.342;2023-08-12T02:26:09;72305.06;;;-142.70;65.52
6224;BME280;3145;42.726;23.342;2023-08-12T02:28:36;72305.06;;;-142.70;65.26
6224;BME280;3145;42.726;23.342;2023-08-12T02:31:04;72315.13;;;-142.70;65.51
6224;BME280;3145;42.726;23.342;2023-08-12T02:33:31;72319.16;;;-142.70;65.65
6224;BME280;3145;42.726;23.342;2023-08-12T02:35:57;72321.19;;;-142.70;65.54
6224;BME280;3145;42.726;23.342;2023-08-12T02:38:24;72315.13;;;-142.70;65.74
6224;BME280;3145;42.726;23.342;2023-08-12T02:40:51;72313.13;;;-142.70;65.37
6224;BME280;3145;42.726;23.342;2023-08-12T02:43:18;72311.09;;;-142.70;65.47
6224;BME280;3145;42.726;23.342;2023-08-12T02:45:44;72323.19;;;-142.70;65.20
6224;BME280;3145;42.726;23.342;2023-08-12T02:48:13;72315.13;;;-142.70;65.32
6224;BME280;3145;42.726;23.342;2023-08-12T02:50:39;72315.13;;;-142.70;65.11
6224;BME280;3145;42.726;23.342;2023-08-12T02:53:08;72315.13;;;-142.70;65.01
6224;BME280;3145;42.726;23.342;2023-08-12T02:55:34;72323.19;;;-142.70;64.84
6224;BME280;3145;42.726;23.342;2023-08-12T02:58:03;72323.19;;;-142.70;65.04
6224;BME280;3145;42.726;23.342;2023-08-12T03:00:30;72319.16;;;-142.70;64.99
6224;BME280;3145;42.726;23.342;2023-08-12T03:02:57;72323.19;;;-142.70;64.87
6224;BME280;3145;42.726;23.342;2023-08-12T03:05:25;72323.19;;;-142.70;64.65
6224;BME280;3145;42.726;23.342;2023-08-12T03:07:51;72327.22;;;-142.70;64.80
6224;BME280;3145;42.726;23.342;2023-08-12T03:10:18;72335.28;;;-142.70;64.81
6224;BME280;3145;42.726;23.342;2023-08-12T03:12:45;72329.22;;;-142.70;64.76
6224;BME280;3145;42.726;23.342;2023-08-12T03:15:12;72329.22;;;-142.70;64.73
6224;BME280;3145;42.726;23.342;2023-08-12T03:17:39;72335.28;;;-142.70;64.71
6224;BME280;3145;42.726;23.342;2023-08-12T03:20:07;72343.34;;;-142.70;64.89
6224;BME280;3145;42.726;23.342;2023-08-12T03:22:37;72343.34;;;-142.70;65.14
6224;BME280;3145;42.726;23.342;2023-08-12T03:25:05;72349.38;;;-142.70;65.27
6224;BME280;3145;42.726;23.342;2023-08-12T03:27:32;72353.41;;;-142.70;65.28
6224;BME280;3145;42.726;23.342;2023-08-12T03:29:58;72355.41;;;-142.70;65.66
6224;BME280;3145;42.726;23.342;2023-08-12T03:32:25;72369.53;;;-142.70;65.74
6224;BME280;3145;42.726;23.342;2023-08-12T03:34:52;72367.50;;;-142.70;65.64
6224;BME280;3145;42.726;23.342;2023-08-12T03:37:19;72373.56;;;-142.70;65.74
6224;BME280;3145;42.726;23.342;2023-08-12T03:39:47;72379.59;;;-142.70;65.96
6224;BME280;3145;42.726;23.342;2023-08-12T03:42:13;72375.56;;;-142.70;66.01
6224;BME280;3145;42.726;23.342;2023-08-12T03:44:42;72375.56;;;-142.70;66.06
6224;BME280;3145;42.726;23.342;2023-08-12T03:47:09;72375.56;;;-142.70;66.23
6224;BME280;3145;42.726;23.342;2023-08-12T03:49:35;72363.47;;;-142.70;66.27
6224;BME280;3145;42.726;23.342;2023-08-12T03:52:02;72337.28;;;-142.70;66.03
6224;BME280;3145;42.726;23.342;2023-08-12T03:54:29;72307.06;;;-142.70;65.42
6224;BME280;3145;42.726;23.342;2023-08-12T03:56:57;72284.91;;;-142.70;64.44
6224;BME280;3145;42.726;23.342;2023-08-12T03:59:24;72246.66;;;-142.70;63.76
6224;BME280;3145;42.726;23.342;2023-08-12T04:01:51;72214.41;;;-142.70;63.03
6224;BME280;3145;42.726;23.342;2023-08-12T04:04:17;72190.25;;;-142.70;61.92
6224;BME280;3145;42.726;23.342;2023-08-12T04:06:44;72156.00;;;-142.70;61.24
6224;BME280;3145;42.726;23.342;2023-08-12T04:09:13;72127.81;;;-142.70;59.95
6224;BME280;3145;42.726;23.342;2023-08-12T04:11:40;72101.63;;;-142.70;59.37
6224;BME280;3145;42.726;23.342;2023-08-12T04:14:09;72081.47;;;-142.70;58.24
6224;BME280;3145;42.726;23.342;2023-08-12T04:16:35;72097.59;;;-142.70;57.26
6224;BME280;3145;42.726;23.342;2023-08-12T04:19:02;72117.72;;;-142.70;56.57
6224;BME280;3145;42.726;23.342;2023-08-12T04:21:29;72117.72;;;-142.70;58.11
6224;BME280;3145;42.726;23.342;2023-08-12T04:23:55;72105.66;;;-142.70;57.12
6224;BME280;3145;42.726;23.342;2023-08-12T04:26:22;72069.38;;;-142.70;56.83
6224;BME280;3145;42.726;23.342;2023-08-12T04:28:49;72023.06;;;-142.70;55.35
6224;BME280;3145;42.726;23.342;2023-08-12T04:31:18;71988.81;;;-142.70;53.94
6224;BME280;3145;42.726;23.342;2023-08-12T04:33:44;71952.56;;;-142.70;52.85
6224;BME280;3145;42.726;23.342;2023-08-12T04:36:11;71918.31;;;-142.70;52.02
6224;BME280;3145;42.726;23.342;2023-08-12T04:38:38;71884.09;;;-142.70;51.14
6224;BME280;3145;42.726;23.342;2023-08-12T04:41:05;71853.88;;;-142.70;50.26
6224;BME280;3145;42.726;23.342;2023-08-12T04:43:32;71835.75;;;-142.70;49.20
6224;BME280;3145;42.726;23.342;2023-08-12T04:45:59;71843.81;;;-142.70;49.59
6224;BME280;3145;42.726;23.342;2023-08-12T04:48:27;71807.56;;;-142.70;49.17
6224;BME280;3145;42.726;23.342;2023-08-12T04:50:54;71797.47;;;-142.70;48.42
6224;BME280;3145;42.726;23.342;2023-08-12T04:53:25;71779.34;;;-142.70;48.29
6224;BME280;3145;42.726;23.342;2023-08-12T04:55:52;71759.22;;;-142.70;47.21
6224;BME280;3145;42.726;23.342;2023-08-12T04:58:18;71751.16;;;-142.70;47.22
6224;BME280;3145;42.726;23.342;2023-08-12T05:00:45;71743.09;;;-142.70;46.75
6224;BME280;3145;42.726;23.342;2023-08-12T05:03:12;71727.00;;;-142.70;47.08
6224;BME280;3145;42.726;23.342;2023-08-12T05:05:40;71743.09;;;-142.70;46.69
6224;BME280;3145;42.726;23.342;2023-08-12T05:08:07;71787.41;;;-142.70;46.81
6224;BME280;3145;42.726;23.342;2023-08-12T05:10:33;71779.34;;;-142.70;47.57
6224;BME280;3145;42.726;23.342;2023-08-12T05:13:00;71757.19;;;-142.70;47.52
6224;BME280;3145;42.726;23.342;2023-08-12T05:15:27;71710.88;;;-142.70;46.89
6224;BME280;3145;42.726;23.342;2023-08-12T05:17:54;71658.50;;;-142.70;46.28
6224;BME280;3145;42.726;23.342;2023-08-12T05:20:21;71624.28;;;-142.70;45.37
6224;BME280;3145;42.726;23.342;2023-08-12T05:22:49;71646.44;;;-142.70;44.54
6224;BME280;3145;42.726;23.342;2023-08-12T05:25:16;71634.34;;;-142.70;44.95
6224;BME280;3145;42.726;23.342;2023-08-12T05:27:42;71590.03;;;-142.70;44.92
6224;BME280;3145;42.726;23.342;2023-08-12T05:30:10;71557.81;;;-142.70;43.54
6224;BME280;3145;42.726;23.342;2023-08-12T05:32:37;71511.50;;;-142.70;43.43
6224;BME280;3145;42.726;23.342;2023-08-12T05:35:04;71509.47;;;-142.70;42.44
6224;BME280;3145;42.726;23.342;2023-08-12T05:37:31;71503.44;;;-142.70;42.65
6224;BME280;3145;42.726;23.342;2023-08-12T05:39:59;71517.53;;;-142.70;42.29
6224;BME280;3145;42.726;23.342;2023-08-12T05:42:26;71477.25;;;-142.70;41.83
6224;BME280;3145;42.726;23.342;2023-08-12T05:44:53;71428.91;;;-142.70;41.22
6224;BME280;3145;42.726;23.342;2023-08-12T05:47:19;71408.78;;;-142.70;40.72
6224;BME280;3145;42.726;23.342;2023-08-12T05:49:46;71376.56;;;-142.70;40.54
6224;BME280;3145;42.726;23.342;2023-08-12T05:52:13;71356.44;;;-142.70;39.89
6224;BME280;3145;42.726;23.342;2023-08-12T05:54:39;71316.16;;;-142.70;39.31
6224;BME280;3145;42.726;23.342;2023-08-12T05:57:07;71277.88;;;-142.70;39.26
6224;BME280;3145;42.726;23.342;2023-08-12T05:59:34;71253.72;;;-142.70;38.86
6224;BME280;3145;42.726;23.342;2023-08-12T06:02:01;71227.53;;;-142.70;37.77
6224;BME280;3145;42.726;23.342;2023-08-12T06:04:27;71225.53;;;-142.70;38.10
6224;BME280;3145;42.726;23.342;2023-08-12T06:06:54;71197.34;;;-142.70;37.51
6224;BME280;3145;42.726;23.342;2023-08-12T06:09:21;71161.09;;;-142.70;37.19
6224;BME280;3145;42.726;23.342;2023-08-12T06:11:47;71138.94;;;-142.70;36.72
6224;BME280;3145;42.726;23.342;2023-08-12T06:14:15;71142.97;;;-142.70;36.27
6224;BME280;3145;42.726;23.342;2023-08-12T06:16:42;71134.91;;;-142.70;35.90
6224;BME280;3145;42.726;23.342;2023-08-12T06:19:09;71122.84;;;-142.70;36.24
6224;BME280;3145;42.726;23.342;2023-08-12T06:21:35;71155.06;;;-142.70;36.13
6224;BME280;3145;42.726;23.342;2023-08-12T06:24:03;71167.13;;;-142.70;36.71
6224;BME280;3145;42.726;23.342;2023-08-12T06:26:29;71124.84;;;-142.70;36.28
6224;BME280;3145;42.726;23.342;2023-08-12T06:28:56;71116.78;;;-142.70;35.31
6224;BME280;3145;42.726;23.342;2023-08-12T06:31:24;71122.84;;;-142.70;36.00
6224;BME280;3145;42.726;23.342;2023-08-12T06:33:51;71086.59;;;-142.70;35.94
6224;BME280;3145;42.726;23.342;2023-08-12T06:36:19;71050.34;;;-142.70;34.77
6224;BME280;3145;42.726;23.342;2023-08-12T06:38:45;71144.97;;;-142.70;35.68
6224;BME280;3145;42.726;23.342;2023-08-12T06:41:12;71110.75;;;-142.70;36.35
6224;BME280;3145;42.726;23.342;2023-08-12T06:43:39;71086.59;;;-142.70;35.68
6224;BME280;3145;42.726;23.342;2023-08-12T06:46:06;71062.41;;;-142.70;34.94
6224;BME280;3145;42.726;23.342;2023-08-12T06:48:34;71038.25;;;-142.70;35.53
6224;BME280;3145;42.726;23.342;2023-08-12T06:51:01;71004.03;;;-142.70;34.96
6224;BME280;3145;42.726;23.342;2023-08-12T06:53:32;71062.41;;;-142.70;35.27
6224;BME280;3145;42.726;23.342;2023-08-12T06:55:59;71062.41;;;-142.70;35.99
6224;BME280;3145;42.726;23.342;2023-08-12T06:58:25;71070.47;;;-142.70;35.02
6224;BME280;3145;42.726;23.342;2023-08-12T07:00:52;71090.63;;;-142.70;35.56
6224;BME280;3145;42.726;23.342;2023-08-12T07:03:19;71070.47;;;-142.70;35.30
6224;BME280;3145;42.726;23.342;2023-08-12T07:05:47;71066.44;;;-142.70;35.23
6224;BME280;3145;42.726;23.342;2023-08-12T07:08:14;71036.25;;;-142.70;34.93
6224;BME280;3145;42.726;23.342;2023-08-12T07:10:41;71070.47;;;-142.70;34.72
6224;BME280;3145;42.726;23.342;2023-08-12T07:13:08;71034.22;;;-142.70;35.48
6224;BME280;3145;42.726;23.342;2023-08-12T07:15:34;70987.91;;;-142.70;34.76
6224;BME280;3145;42.726;23.342;2023-08-12T07:18:01;70965.75;;;-142.70;35.46
6224;BME280;3145;42.726;23.342;2023-08-12T07:20:28;70937.56;;;-142.70;33.91
6224;BME280;3145;42.726;23.342;2023-08-12T07:22:56;70901.34;;;-142.70;33.96
6224;BME280;3145;42.726;23.342;2023-08-12T07:25:23;70877.16;;;-142.70;33.56
6224;BME280;3145;42.726;23.342;2023-08-12T07:27:50;70941.59;;;-142.70;33.34
6224;BME280;3145;42.726;23.342;2023-08-12T07:30:16;70911.41;;;-142.70;34.30
6224;BME280;3145;42.726;23.342;2023-08-12T07:32:43;70861.06;;;-142.70;33.28
6224;BME280;3145;42.726;23.342;2023-08-12T07:35:10;70832.88;;;-142.70;32.84
6224;BME280;3145;42.726;23.342;2023-08-12T07:37:37;70812.75;;;-142.70;33.25
6224;BME280;3145;42.726;23.342;2023-08-12T07:40:06;70790.59;;;-142.70;32.33
6224;BME280;3145;42.726;23.342;2023-08-12T07:42:33;70780.53;;;-142.70;31.88
6224;BME280;3145;42.726;23.342;2023-08-12T07:44:59;70778.50;;;-142.70;32.10
6224;BME280;3145;42.726;23.342;2023-08-12T07:47:26;70764.41;;;-142.70;32.04
6224;BME280;3145;42.726;23.342;2023-08-12T07:49:53;70746.28;;;-142.70;31.07
6224;BME280;3145;42.726;23.342;2023-08-12T07:52:20;70736.22;;;-142.70;31.88
6224;BME280;3145;42.726;23.342;2023-08-12T07:54:47;70728.16;;;-142.70;31.72
6224;BME280;3145;42.726;23.342;2023-08-12T07:57:15;70760.38;;;-142.70;32.39
6224;BME280;3145;42.726;23.342;2023-08-12T07:59:41;70754.34;;;-142.70;30.85
6224;BME280;3145;42.726;23.342;2023-08-12T08:02:08;70768.44;;;-142.70;30.55
6224;BME280;3145;42.726;23.342;2023-08-12T08:04:35;70764.41;;;-142.70;31.46
6224;BME280;3145;42.726;23.342;2023-08-12T08:07:02;70756.34;;;-142.70;31.33
6224;BME280;3145;42.726;23.342;2023-08-12T08:09:28;70742.25;;;-142.70;31.50
6224;BME280;3145;42.726;23.342;2023-08-12T08:11:55;70744.28;;;-142.70;31.61
6224;BME280;3145;42.726;23.342;2023-08-12T08:14:23;70710.06;;;-142.70;32.03
6224;BME280;3145;42.726;23.342;2023-08-12T08:16:50;70699.97;;;-142.70;30.99
6224;BME280;3145;42.726;23.342;2023-08-12T08:19:16;70720.13;;;-142.70;30.72
6224;BME280;3145;42.726;23.342;2023-08-12T08:21:43;70724.16;;;-142.70;30.84
6224;BME280;3145;42.726;23.342;2023-08-12T08:24:10;70718.09;;;-142.70;30.54
6224;BME280;3145;42.726;23.342;2023-08-12T08:26:38;70812.75;;;-142.70;31.33
6224;BME280;3145;42.726;23.342;2023-08-12T08:29:05;70848.97;;;-142.70;31.68
6224;BME280;3145;42.726;23.342;2023-08-12T08:31:33;70778.50;;;-142.70;32.13
6224;BME280;3145;42.726;23.342;2023-08-12T08:34:00;70806.69;;;-142.70;31.96
6224;BME280;3145;42.726;23.342;2023-08-12T08:36:27;70760.38;;;-142.70;32.02
6224;BME280;3145;42.726;23.342;2023-08-12T08:38:54;70708.03;;;-142.70;31.25
6224;BME280;3145;42.726;23.342;2023-08-12T08:41:21;70710.06;;;-142.70;29.67
6224;BME280;3145;42.726;23.342;2023-08-12T08:43:48;70716.09;;;-142.70;30.70
6224;BME280;3145;42.726;23.342;2023-08-12T08:46:15;70746.28;;;-142.70;30.56
6224;BME280;3145;42.726;23.342;2023-08-12T08:48:44;70740.25;;;-142.70;30.62
6224;BME280;3145;42.726;23.342;2023-08-12T08:51:11;70699.97;;;-142.70;31.34
6224;BME280;3145;42.726;23.342;2023-08-12T08:53:39;70716.09;;;-142.70;30.36
6224;BME280;3145;42.726;23.342;2023-08-12T08:56:06;70752.34;;;-142.70;30.50
6224;BME280;3145;42.726;23.342;2023-08-12T08:58:37;70740.25;;;-142.70;31.43
6224;BME280;3145;42.726;23.342;2023-08-12T09:01:05;70794.63;;;-142.70;30.37
6224;BME280;3145;42.726;23.342;2023-08-12T09:03:33;70756.34;;;-142.70;31.13
6224;BME280;3145;42.726;23.342;2023-08-12T09:06:03;70756.34;;;-142.70;30.72
6224;BME280;3145;42.726;23.342;2023-08-12T09:08:32;70782.53;;;-142.70;30.61
6224;BME280;3145;42.726;23.342;2023-08-12T09:10:59;70748.31;;;-142.70;30.49
6224;BME280;3145;42.726;23.342;2023-08-12T09:13:26;70758.38;;;-142.70;31.51
6224;BME280;3145;42.726;23.342;2023-08-12T09:15:53;70712.06;;;-142.70;31.09
6224;BME280;3145;42.726;23.342;2023-08-12T09:18:20;70681.88;;;-142.70;30.35
6224;BME280;3145;42.726;23.342;2023-08-12T09:20:49;70744.28;;;-142.70;30.22
6224;BME280;3145;42.726;23.342;2023-08-12T09:23:17;70736.22;;;-142.70;30.42
6224;BME280;3145;42.726;23.342;2023-08-12T09:25:44;70768.44;;;-142.70;30.71
6224;BME280;3145;42.726;23.342;2023-08-12T09:28:12;70796.63;;;-142.70;30.68
6224;BME280;3145;42.726;23.342;2023-08-12T09:30:39;70750.31;;;-142.70;31.73
6224;BME280;3145;42.726;23.342;2023-08-12T09:33:07;70704.00;;;-142.70;31.41
6224;BME280;3145;42.726;23.342;2023-08-12T09:35:37;70655.69;;;-142.70;29.97
6224;BME280;3145;42.726;23.342;2023-08-12T09:38:05;70663.75;;;-142.70;30.02
6224;BME280;3145;42.726;23.342;2023-08-12T09:40:35;70595.28;;;-142.70;29.68
6224;BME280;3145;42.726;23.342;2023-08-12T09:43:03;70589.25;;;-142.70;29.34
6224;BME280;3145;42.726;23.342;2023-08-12T09:45:30;70661.72;;;-142.70;30.08
6224;BME280;3145;42.726;23.342;2023-08-12T09:47:58;70720.13;;;-142.70;31.17
6224;BME280;3145;42.726;23.342;2023-08-12T09:50:25;70754.34;;;-142.70;30.92
6224;BME280;3145;42.726;23.342;2023-08-12T09:52:53;70746.28;;;-142.70;31.40
6224;BME280;3145;42.726;23.342;2023-08-12T09:55:22;70710.06;;;-142.70;31.27
6224;BME280;3145;42.726;23.342;2023-08-12T09:57:51;70691.94;;;-142.70;30.50
6224;BME280;3145;42.726;23.342;2023-08-12T10:00:19;70663.75;;;-142.70;30.71
6224;BME280;3145;42.726;23.342;2023-08-12T10:02:47;70768.44;;;-142.70;31.68
6224;BME280;3145;42.726;23.342;2023-08-12T10:05:19;70744.28;;;-142.70;30.78
6224;BME280;3145;42.726;23.342;2023-08-12T10:07:47;70742.25;;;-142.70;30.78
6224;BME280;3145;42.726;23.342;2023-08-12T10:10:15;70736.22;;;-142.70;31.50
6224;BME280;3145;42.726;23.342;2023-08-12T10:12:42;70820.78;;;-142.70;31.73
6224;BME280;3145;42.726;23.342;2023-08-12T10:15:11;70842.94;;;-142.70;32.16
6224;BME280;3145;42.726;23.342;2023-08-12T10:17:38;70846.97;;;-142.70;31.26
6224;BME280;3145;42.726;23.342;2023-08-12T10:20:06;70881.19;;;-142.70;32.69
6224;BME280;3145;42.726;23.342;2023-08-12T10:22:35;70877.16;;;-142.70;32.20
6224;BME280;3145;42.726;23.342;2023-08-12T10:25:03;70822.81;;;-142.70;31.38
6224;BME280;3145;42.726;23.342;2023-08-12T10:27:31;70806.69;;;-142.70;31.54
6224;BME280;3145;42.726;23.342;2023-08-12T10:29:57;70724.16;;;-142.70;31.33
6224;BME280;3145;42.726;23.342;2023-08-12T10:32:26;70712.06;;;-142.70;30.70
6224;BME280;3145;42.726;23.342;2023-08-12T10:34:56;70677.84;;;-142.70;30.99
6224;BME280;3145;42.726;23.342;2023-08-12T10:37:24;70671.78;;;-142.70;30.29
6224;BME280;3145;42.726;23.342;2023-08-12T10:39:52;70671.78;;;-142.70;30.30
6224;BME280;3145;42.726;23.342;2023-08-12T10:42:39;70635.56;;;-142.70;30.45
6224;BME280;3145;42.726;23.342;2023-08-12T10:45:07;70631.53;;;-142.70;30.75
6224;BME280;3145;42.726;23.342;2023-08-12T10:47:39;70726.16;;;-142.70;30.41
6224;BME280;3145;42.726;23.342;2023-08-12T10:50:16;70693.94;;;-142.70;30.52
6224;BME280;3145;42.726;23.342;2023-08-12T10:52:43;70718.09;;;-142.70;29.75
6224;BME280;3145;42.726;23.342;2023-08-12T10:55:21;70714.06;;;-142.70;30.02
6224;BME280;3145;42.726;23.342;2023-08-12T10:57:49;70706.03;;;-142.70;29.59
6224;BME280;3145;42.726;23.342;2023-08-12T11:00:16;70712.06;;;-142.70;29.13
6224;BME280;3145;42.726;23.342;2023-08-12T11:02:50;70708.03;;;-142.70;27.01
6224;BME280;3145;42.726;23.342;2023-08-12T11:05:18;70724.16;;;-142.70;28.00
6224;BME280;3145;42.726;23.342;2023-08-12T11:07:46;70699.97;;;-142.70;27.93
6224;BME280;3145;42.726;23.342;2023-08-12T11:10:14;70667.78;;;-142.70;28.47
6224;BME280;3145;42.726;23.342;2023-08-12T11:12:42;70655.69;;;-142.70;28.66
6224;BME280;3145;42.726;23.342;2023-08-12T11:15:12;70591.25;;;-142.70;29.47
6224;BME280;3145;42.726;23.342;2023-08-12T11:17:40;70609.38;;;-142.70;28.67
6224;BME280;3145;42.726;23.342;2023-08-12T11:20:10;70651.66;;;-142.70;28.06
6224;BME280;3145;42.726;23.342;2023-08-12T11:22:38;70714.06;;;-142.70;27.40
6224;BME280;3145;42.726;23.342;2023-08-12T11:25:06;70704.00;;;-142.70;28.16
6224;BME280;3145;42.726;23.342;2023-08-12T11:27:41;70712.06;;;-142.70;27.80
6224;BME280;3145;42.726;23.342;2023-08-12T11:30:09;70647.63;;;-142.70;29.00
6224;BME280;3145;42.726;23.342;2023-08-12T11:32:37;70599.31;;;-142.70;28.94
6224;BME280;3145;42.726;23.342;2023-08-12T11:35:05;70548.97;;;-142.70;28.64
6224;BME280;3145;42.726;23.342;2023-08-12T11:37:35;70508.72;;;-142.70;28.28
6224;BME280;3145;42.726;23.342;2023-08-12T11:40:02;70450.31;;;-142.70;28.40
6224;BME280;3145;42.726;23.342;2023-08-12T11:42:29;70486.56;;;-142.70;27.98
6224;BME280;3145;42.726;23.342;2023-08-12T11:44:56;70561.06;;;-142.70;27.83
6224;BME280;3145;42.726;23.342;2023-08-12T11:47:23;70581.19;;;-142.70;28.90
6224;BME280;3145;42.726;23.342;2023-08-12T11:49:52;70544.94;;;-142.70;28.07
6224;BME280;3145;42.726;23.342;2023-08-12T11:52:18;70581.19;;;-142.70;28.33
6224;BME280;3145;42.726;23.342;2023-08-12T11:54:48;70542.94;;;-142.70;28.24
6224;BME280;3145;42.726;23.342;2023-08-12T11:57:15;70551.00;;;-142.70;28.13
6224;BME280;3145;42.726;23.342;2023-08-12T11:59:42;70613.41;;;-142.70;27.89
6224;BME280;3145;42.726;23.342;2023-08-12T12:02:10;70559.03;;;-142.70;28.06
6224;BME280;3145;42.726;23.342;2023-08-12T12:04:37;70522.81;;;-142.70;28.05
6224;BME280;3145;42.726;23.342;2023-08-12T12:07:17;70502.69;;;-142.70;27.72
6224;BME280;3145;42.726;23.342;2023-08-12T12:09:43;70438.25;;;-142.70;27.88
6224;BME280;3145;42.726;23.342;2023-08-12T12:12:12;70422.13;;;-142.70;27.78
6224;BME280;3145;42.726;23.342;2023-08-12T12:14:38;70468.44;;;-142.70;26.93
6224;BME280;3145;42.726;23.342;2023-08-12T12:17:07;70534.88;;;-142.70;28.09
6224;BME280;3145;42.726;23.342;2023-08-12T12:19:34;70559.03;;;-142.70;28.94
6224;BME280;3145;42.726;23.342;2023-08-12T12:22:03;70587.22;;;-142.70;28.41
6224;BME280;3145;42.726;23.342;2023-08-12T12:24:30;70518.78;;;-142.70;27.98
6224;BME280;3145;42.726;23.342;2023-08-12T12:26:57;70476.50;;;-142.70;28.36
6224;BME280;3145;42.726;23.342;2023-08-12T12:29:25;70470.47;;;-142.70;27.77
6224;BME280;3145;42.726;23.342;2023-08-12T12:31:52;70504.69;;;-142.70;28.60
6224;BME280;3145;42.726;23.342;2023-08-12T12:34:19;70490.59;;;-142.70;28.40
6224;BME280;3145;42.726;23.342;2023-08-12T12:36:45;70466.44;;;-142.70;28.47
6224;BME280;3145;42.726;23.342;2023-08-12T12:39:12;70508.72;;;-142.70;28.40
6224;BME280;3145;42.726;23.342;2023-08-12T12:41:39;70553.00;;;-142.70;28.38
6224;BME280;3145;42.726;23.342;2023-08-12T12:44:06;70659.72;;;-142.70;28.72
6224;BME280;3145;42.726;23.342;2023-08-12T12:46:35;70704.00;;;-142.70;29.74
6224;BME280;3145;42.726;23.342;2023-08-12T12:49:01;70754.34;;;-142.70;29.39
6224;BME280;3145;42.726;23.342;2023-08-12T12:51:28;70758.38;;;-142.70;30.04